Time;durP1;ratioP1;P1;durP2;ratioP2;P2;SDS_P1;SDS_P2;PMS_P1;PMS_P2;Temp;Humidity;BMP_temperature;BMP_pressure;BME280_temperature;BME280_humidity;BME280_pressure;Samples;Min_cycle;Max_cycle;Signal;HPM_P1;HPM_P2
2023/04/02 00:01:42;;;;;;;3.25;1.35;;;;;;;23.71;35.04;98643.97;4337575;32;33572;-70
2023/04/02 00:04:13;;;;;;;3.78;1.85;;;;;;;23.72;35.07;98642.88;4362786;32;33684;-72
2023/04/02 00:06:44;;;;;;;4.72;1.40;;;;;;;23.70;35.12;98639.59;4349364;32;33867;-71
2023/04/02 00:09:12;;;;;;;2.37;1.30;;;;;;;23.68;35.13;98640.66;4337757;32;34959;-69
2023/04/02 00:11:41;;;;;;;2.28;1.12;;;;;;;23.70;35.13;98642.31;4363044;32;34478;-68
2023/04/02 00:14:21;;;;;;;3.80;1.30;;;;;;;23.70;35.12;98647.78;4336891;32;33203;-72
2023/04/02 00:16:50;;;;;;;2.00;1.17;;;;;;;23.71;35.15;98649.41;4349958;32;33515;-71
2023/04/02 00:19:43;;;;;;;5.40;1.40;;;;;;;23.70;35.11;98648.59;4361206;32;34114;-71
2023/04/02 00:22:19;;;;;;;3.70;1.33;;;;;;;23.69;35.12;98644.22;4350519;32;34409;-68
2023/04/02 00:24:49;;;;;;;3.03;1.37;;;;;;;23.68;35.21;98654.28;4361542;32;34308;-71
2023/04/02 00:27:17;;;;;;;4.65;1.30;;;;;;;23.66;35.22;98651.00;4349412;32;33999;-69
2023/04/02 00:29:52;;;;;;;3.17;1.30;;;;;;;23.68;35.12;98642.56;4348675;32;34578;-70
2023/04/02 00:32:25;;;;;;;4.65;1.70;;;;;;;23.70;35.18;98645.88;4361329;32;33702;-70
2023/04/02 00:34:53;;;;;;;3.37;1.60;;;;;;;23.71;35.17;98654.84;4349191;32;34687;-71
2023/04/02 00:37:22;;;;;;;5.22;1.37;;;;;;;23.70;35.21;98653.22;4361187;32;33982;-71
2023/04/02 00:39:51;;;;;;;2.10;1.30;;;;;;;23.70;35.28;98655.94;4337074;32;33361;-69
2023/04/02 00:42:19;;;;;;;5.05;1.40;;;;;;;23.71;35.29;98657.59;4349165;32;33799;-67
2023/04/02 00:44:48;;;;;;;3.70;1.20;;;;;;;23.68;35.33;98659.72;4355589;32;34003;-72
2023/04/02 00:47:26;;;;;;;4.53;1.42;;;;;;;23.68;35.31;98661.63;4335604;32;33825;-67
2023/04/02 00:50:22;;;;;;;3.35;1.30;;;;;;;23.68;35.37;98664.34;4337140;32;34168;-68
2023/04/02 00:52:50;;;;;;;3.10;1.10;;;;;;;23.69;35.36;98663.28;4359066;32;33437;-68
2023/04/02 00:55:35;;;;;;;2.03;1.20;;;;;;;23.67;35.40;98671.69;4361142;32;33538;-67
2023/04/02 00:58:03;;;;;;;2.45;1.30;;;;;;;23.68;35.42;98669.78;4348877;32;33914;-71
2023/04/02 01:00:32;;;;;;;4.60;1.37;;;;;;;23.66;35.44;98661.88;4360977;32;34079;-71
2023/04/02 01:03:15;;;;;;;3.50;1.25;;;;;;;23.64;35.48;98664.06;4352023;32;33642;-70
2023/04/02 01:06:17;;;;;;;2.37;1.30;;;;;;;23.67;35.45;98662.72;4362267;32;34166;-68
2023/04/02 01:08:51;;;;;;;3.25;1.10;;;;;;;23.65;35.52;98657.53;4340357;32;34087;-71
2023/04/02 01:11:35;;;;;;;5.70;1.58;;;;;;;23.65;35.46;98654.00;4336491;32;34066;-71
2023/04/02 01:14:27;;;;;;;2.95;1.25;;;;;;;23.64;35.49;98655.91;4348378;32;32181;-69
2023/04/02 01:17:17;;;;;;;2.08;1.00;;;;;;;23.65;35.52;98665.69;4348914;32;33570;-71
2023/04/02 01:19:51;;;;;;;3.37;1.27;;;;;;;23.64;35.50;98660.50;4348784;32;33761;-70
2023/04/02 01:22:49;;;;;;;4.00;1.40;;;;;;;23.63;35.54;98661.53;4362259;32;34893;-71
2023/04/02 01:25:31;;;;;;;2.53;1.00;;;;;;;23.63;35.56;98667.81;4348686;32;33516;-69
2023/04/02 01:28:37;;;;;;;3.40;1.20;;;;;;;23.62;35.59;98673.53;4336758;32;34664;-72
2023/04/02 01:31:05;;;;;;;2.75;1.20;;;;;;;23.61;35.58;98667.25;4362319;32;34617;-70
2023/04/02 01:33:33;;;;;;;4.75;1.45;;;;;;;23.59;35.61;98672.13;4336536;32;34145;-71
2023/04/02 01:36:18;;;;;;;3.08;1.20;;;;;;;23.59;35.63;98674.84;4336504;32;33168;-70
2023/04/02 01:38:52;;;;;;;1.62;1.10;;;;;;;23.60;35.65;98675.69;4348727;32;34591;-71
2023/04/02 01:41:30;;;;;;;7.07;1.45;;;;;;;23.58;35.67;98673.19;4324381;32;34669;-71
2023/04/02 01:44:09;;;;;;;1.65;1.10;;;;;;;23.60;35.73;98676.50;4321094;33;33052;-69
2023/04/02 01:46:39;;;;;;;1.85;1.10;;;;;;;23.59;35.72;98674.00;4309983;33;33861;-72
2023/04/02 01:49:15;;;;;;;2.10;1.17;;;;;;;23.56;35.74;98678.09;4334045;33;33712;-72
2023/04/02 01:51:44;;;;;;;5.28;1.45;;;;;;;23.58;35.74;98675.09;4322238;33;34683;-69
2023/04/02 01:54:15;;;;;;;2.50;1.45;;;;;;;23.55;35.79;98676.44;4333673;33;34394;-68
2023/04/02 01:56:42;;;;;;;2.35;1.15;;;;;;;23.55;35.82;98681.91;4309877;33;33657;-69
2023/04/02 01:59:11;;;;;;;3.80;1.20;;;;;;;23.56;35.80;98688.16;4321787;33;34515;-70
2023/04/02 02:01:50;;;;;;;1.75;1.02;;;;;;;23.55;35.80;98683.75;4333741;33;33103;-69
2023/04/02 02:04:18;;;;;;;3.60;1.60;;;;;;;23.54;35.80;98688.38;4333917;33;34284;-69
2023/04/02 02:06:46;;;;;;;2.50;1.20;;;;;;;23.54;35.83;98685.66;4333674;33;32738;-69
2023/04/02 02:09:21;;;;;;;1.58;1.08;;;;;;;23.54;35.81;98687.56;4333670;33;34674;-68
2023/04/02 02:11:50;;;;;;;2.62;1.20;;;;;;;23.55;35.85;98691.94;4321695;33;34744;-72
2023/04/02 02:14:21;;;;;;;4.47;1.40;;;;;;;23.53;35.87;98694.09;4321493;33;34760;-68
2023/04/02 02:16:49;;;;;;;3.60;1.20;;;;;;;23.52;35.91;98693.28;4334047;33;34053;-69
2023/04/02 02:19:27;;;;;;;2.95;1.10;;;;;;;23.52;35.93;98693.28;4321594;33;34594;-70
2023/04/02 02:22:16;;;;;;;2.25;1.08;;;;;;;23.50;35.96;98692.72;4332548;33;33886;-71
2023/04/02 02:24:44;;;;;;;2.50;1.58;;;;;;;23.48;35.99;98689.41;4333813;33;33938;-69
2023/04/02 02:27:33;;;;;;;2.15;0.90;;;;;;;23.47;36.06;98698.66;4321647;33;33714;-69
2023/04/02 02:30:05;;;;;;;6.70;1.42;;;;;;;23.46;36.10;98690.75;4321666;33;33790;-69
2023/04/02 02:32:32;;;;;;;2.33;1.10;;;;;;;23.45;36.13;98687.19;4321589;33;32483;-70
2023/04/02 02:35:11;;;;;;;2.47;1.10;;;;;;;23.45;36.16;98697.25;4333716;33;34562;-69
2023/04/02 02:37:41;;;;;;;2.62;1.10;;;;;;;23.43;36.16;98698.34;4322906;33;33337;-72
2023/04/02 02:40:19;;;;;;;3.20;1.17;;;;;;;23.42;36.18;98696.69;4322050;33;33383;-71
2023/04/02 02:42:50;;;;;;;2.40;1.08;;;;;;;23.42;36.20;98701.31;4322537;33;33909;-68
2023/04/02 02:45:20;;;;;;;3.42;1.37;;;;;;;23.41;36.20;98702.41;4332634;32;33141;-68
2023/04/02 02:47:47;;;;;;;;;;;;;;;23.41;36.21;98705.13;4336740;32;33533;-67
2023/04/02 02:50:20;;;;;;;1.73;1.02;;;;;;;23.49;36.03;98704.66;4361950;32;33919;-71
2023/04/02 02:52:53;;;;;;;1.65;1.00;;;;;;;23.42;36.19;98701.31;4336486;32;33524;-67
2023/04/02 02:55:23;;;;;;;1.87;1.00;;;;;;;23.39;36.27;98693.66;4348349;32;34115;-71
2023/04/02 02:57:57;;;;;;;2.60;1.08;;;;;;;23.39;36.32;98699.09;4348666;32;33278;-71
2023/04/02 03:00:25;;;;;;;2.85;1.27;;;;;;;23.39;36.34;98697.19;4336486;32;34771;-69
2023/04/02 03:02:53;;;;;;;2.50;1.15;;;;;;;23.38;36.40;98689.28;4336405;32;33796;-72
2023/04/02 03:05:26;;;;;;;4.12;1.42;;;;;;;23.38;36.45;98681.13;4336739;32;34039;-72
2023/04/02 03:07:55;;;;;;;4.22;1.10;;;;;;;23.38;36.51;98690.13;4324106;32;33808;-70
2023/04/02 03:10:34;;;;;;;;;;;;;;;23.38;36.56;98692.03;4324937;32;33930;-70
2023/04/02 03:13:20;;;;;;;3.30;1.20;;;;;;;23.46;36.40;98679.88;4361213;32;34150;-69
2023/04/02 03:15:59;;;;;;;2.45;1.15;;;;;;;23.38;36.58;98689.28;4337985;32;34207;-68
2023/04/02 03:19:09;;;;;;;1.92;1.02;;;;;;;23.37;36.64;98693.09;4335721;32;33065;-68
2023/04/02 03:21:52;;;;;;;3.58;1.23;;;;;;;23.36;36.73;98696.88;4302826;33;33492;-72
2023/04/02 03:24:28;;;;;;;1.87;1.15;;;;;;;23.37;36.81;98690.37;4315138;33;33608;-71
2023/04/02 03:27:10;;;;;;;2.67;1.20;;;;;;;23.35;36.87;98696.06;4320233;32;34453;-69
2023/04/02 03:30:00;;;;;;;2.30;1.33;;;;;;;23.36;36.87;98700.44;4348174;32;33696;-68
2023/04/02 03:32:31;;;;;;;2.15;1.02;;;;;;;23.35;36.88;98692.50;4348581;32;33596;-71
2023/04/02 03:35:25;;;;;;;2.37;1.20;;;;;;;23.34;36.92;98704.47;4335986;32;34368;-68
2023/04/02 03:38:19;;;;;;;5.80;1.50;;;;;;;23.34;36.91;98696.31;4324301;32;32659;-70
2023/04/02 03:40:59;;;;;;;2.80;1.10;;;;;;;23.35;36.92;98703.41;4350057;32;33631;-69
2023/04/02 03:43:33;;;;;;;3.45;0.93;;;;;;;23.33;36.99;98706.37;4347279;32;32873;-67
2023/04/02 03:46:30;;;;;;;1.85;1.10;;;;;;;23.34;37.05;98709.94;4321719;33;33732;-69
2023/04/02 03:49:07;;;;;;;6.10;1.30;;;;;;;23.35;36.96;98717.00;4329511;33;33751;-70
2023/04/02 03:51:38;;;;;;;1.77;1.00;;;;;;;23.34;36.96;98713.47;4333548;33;34258;-68
2023/04/02 03:54:10;;;;;;;1.50;1.10;;;;;;;23.32;37.02;98714.81;4320896;33;34286;-71
2023/04/02 03:56:40;;;;;;;1.80;0.90;;;;;;;23.33;37.02;98713.72;4321354;33;33924;-70
2023/04/02 03:59:23;;;;;;;2.17;0.98;;;;;;;23.34;37.00;98715.38;4333288;33;34775;-68
2023/04/02 04:02:14;;;;;;;3.92;1.10;;;;;;;23.33;36.98;98713.72;4332635;33;32619;-71
2023/04/02 04:04:43;;;;;;;2.00;1.00;;;;;;;23.31;37.05;98715.88;4332989;33;33851;-73
2023/04/02 04:07:29;;;;;;;5.12;1.00;;;;;;;23.30;37.10;98716.94;4320732;33;33835;-68
2023/04/02 04:09:56;;;;;;;1.90;0.90;;;;;;;23.31;37.19;98724.03;4321742;33;33015;-70
2023/04/02 04:12:41;;;;;;;4.35;1.25;;;;;;;23.31;37.26;98727.56;4345896;33;34124;-72
2023/04/02 04:15:11;;;;;;;1.52;1.00;;;;;;;23.32;37.19;98729.25;4318137;33;34723;-69
2023/04/02 04:17:52;;;;;;;2.22;1.10;;;;;;;23.32;37.23;98736.59;4330066;33;32825;-71
2023/04/02 04:20:26;;;;;;;2.28;1.30;;;;;;;23.31;37.22;98732.19;4329964;33;34273;-71
2023/04/02 04:22:54;;;;;;;1.15;0.90;;;;;;;23.31;37.24;98735.72;4318001;33;33536;-72
2023/04/02 04:25:28;;;;;;;1.65;1.08;;;;;;;23.31;37.25;98743.91;4329904;33;33825;-71
2023/04/02 04:28:41;;;;;;;1.37;0.90;;;;;;;23.30;37.25;98741.44;4318093;33;34202;-72
2023/04/02 04:31:16;;;;;;;1.60;1.02;;;;;;;23.33;37.17;98738.22;4301956;33;34173;-68
2023/04/02 04:33:49;;;;;;;3.00;1.02;;;;;;;23.29;37.25;98737.91;4302059;33;32439;-68
2023/04/02 04:36:29;;;;;;;2.17;1.17;;;;;;;23.31;37.25;98740.34;4310575;33;34421;-70
2023/04/02 04:38:59;;;;;;;;;;;;;;;23.31;37.23;98749.34;4330366;33;33484;-72
2023/04/02 04:41:29;;;;;;;3.30;1.30;;;;;;;23.38;37.11;98757.34;4317649;33;35181;-68
2023/04/02 04:44:17;;;;;;;2.83;1.27;;;;;;;23.31;37.28;98756.69;4317920;33;33200;-72
2023/04/02 04:46:52;;;;;;;2.12;1.10;;;;;;;23.32;37.44;98761.09;4333010;33;34349;-67
2023/04/02 04:49:40;;;;;;;2.55;1.30;;;;;;;23.29;37.49;98754.22;4319889;33;34422;-68
2023/04/02 04:52:20;;;;;;;1.67;1.10;;;;;;;23.31;37.50;98759.41;4332911;33;34170;-68
2023/04/02 04:54:48;;;;;;;2.95;0.93;;;;;;;23.30;37.47;98758.59;4331931;33;34244;-70
2023/04/02 04:57:33;;;;;;;1.83;1.12;;;;;;;23.31;37.48;98753.97;4319510;33;32718;-69
2023/04/02 05:00:11;;;;;;;1.70;0.98;;;;;;;23.28;37.51;98758.03;4333310;33;34677;-69
2023/04/02 05:03:03;;;;;;;3.25;1.30;;;;;;;23.30;37.45;98752.31;4308339;33;32860;-71
2023/04/02 05:05:32;;;;;;;1.77;0.90;;;;;;;23.34;37.38;98758.91;4331974;33;33676;-71
2023/04/02 05:08:13;;;;;;;1.67;1.00;;;;;;;23.31;37.45;98760.22;4308162;33;32858;-69
2023/04/02 05:11:04;;;;;;;2.15;1.15;;;;;;;23.33;37.44;98763.53;4307674;33;32930;-68
2023/04/02 05:13:51;;;;;;;1.98;1.10;;;;;;;23.35;37.45;98761.38;4336317;33;33585;-70
2023/04/02 05:16:32;;;;;;;1.67;1.10;;;;;;;23.35;37.45;98760.56;4322139;33;33392;-68
2023/04/02 05:19:28;;;;;;;1.92;1.23;;;;;;;23.34;37.51;98762.47;4322853;33;33543;-67
2023/04/02 05:22:32;;;;;;;1.42;0.90;;;;;;;23.37;37.55;98763.88;4345049;33;34792;-69
2023/04/02 05:25:22;;;;;;;1.83;1.05;;;;;;;23.35;37.58;98777.72;4346507;33;34101;-71
2023/04/02 05:28:10;;;;;;;0.98;0.80;;;;;;;23.36;37.71;98773.94;4333571;33;32838;-70
2023/04/02 05:30:48;;;;;;;1.33;0.80;;;;;;;23.37;37.74;98774.75;4347578;33;34572;-69
2023/04/02 05:33:20;;;;;;;2.17;1.08;;;;;;;23.35;37.78;98774.16;4346306;33;34733;-67
2023/04/02 05:35:52;;;;;;;3.90;1.10;;;;;;;23.35;37.90;98785.06;4346366;33;33899;-68
2023/04/02 05:38:23;;;;;;;2.35;0.90;;;;;;;23.33;37.91;98774.44;4334151;33;33046;-69
2023/04/02 05:40:58;;;;;;;2.70;1.10;;;;;;;23.35;37.95;98777.72;4321989;33;33821;-70
2023/04/02 05:43:25;;;;;;;1.40;1.00;;;;;;;23.34;37.91;98784.25;4333723;33;33200;-69
2023/04/02 05:45:55;;;;;;;2.30;0.90;;;;;;;23.36;37.91;98790.28;4319245;33;32929;-71
2023/04/02 05:48:32;;;;;;;2.55;1.20;;;;;;;23.36;37.91;98794.88;4332510;33;33779;-68
2023/04/02 05:51:00;;;;;;;1.87;1.10;;;;;;;23.37;37.89;98782.94;4295258;33;33844;-70
2023/04/02 05:53:33;;;;;;;2.10;1.05;;;;;;;23.36;37.90;98793.00;4319160;33;33512;-72
2023/04/02 05:56:05;;;;;;;1.80;1.10;;;;;;;23.35;37.92;98799.50;4319438;33;34739;-69
2023/04/02 05:58:54;;;;;;;1.90;0.90;;;;;;;23.38;37.91;98795.47;4331578;33;34333;-68
2023/04/02 06:01:24;;;;;;;3.30;1.00;;;;;;;23.33;37.92;98798.94;4321973;33;34288;-69
2023/04/02 06:04:23;;;;;;;1.92;1.20;;;;;;;23.32;37.97;98799.19;4307187;33;33142;-70
2023/04/02 06:07:15;;;;;;;1.80;0.90;;;;;;;23.33;37.93;98793.50;4332608;33;35010;-71
2023/04/02 06:10:02;;;;;;;1.67;0.95;;;;;;;23.30;37.96;98798.59;4296982;33;32678;-71
2023/04/02 06:12:39;;;;;;;1.45;0.93;;;;;;;23.29;37.96;98796.97;4295589;33;32901;-70
2023/04/02 06:15:18;;;;;;;1.52;0.90;;;;;;;23.27;37.98;98799.94;4318613;33;33808;-70
2023/04/02 06:18:21;;;;;;;1.67;0.85;;;;;;;23.28;37.97;98807.03;4332588;33;34443;-72
2023/04/02 06:20:50;;;;;;;1.55;1.00;;;;;;;23.30;38.00;98801.31;4330764;33;33322;-70
2023/04/02 06:23:37;;;;;;;1.25;0.80;;;;;;;23.29;38.02;98807.84;4332457;32;33778;-71
2023/04/02 06:26:15;;;;;;;3.35;1.15;;;;;;;23.27;38.02;98809.97;4361740;32;34736;-69
2023/04/02 06:29:01;;;;;;;2.15;1.00;;;;;;;23.27;38.03;98813.53;4360589;32;34767;-70
2023/04/02 06:31:32;;;;;;;1.85;1.00;;;;;;;23.27;38.01;98819.00;4335975;32;32705;-68
2023/04/02 06:34:03;;;;;;;1.62;1.10;;;;;;;23.27;38.00;98820.84;4348523;32;33915;-70
2023/04/02 06:36:32;;;;;;;;;;;;;;;23.28;37.93;98822.53;4337099;32;34259;-72
2023/04/02 06:39:04;;;;;;;0.90;0.80;;;;;;;23.36;37.69;98819.37;4336474;32;35148;-68
2023/04/02 06:41:32;;;;;;;1.52;0.88;;;;;;;23.31;37.81;98831.00;4336600;32;34288;-69
2023/04/02 06:44:06;;;;;;;1.42;0.90;;;;;;;23.28;37.82;98828.78;4358376;32;34663;-69
2023/04/02 06:46:56;;;;;;;2.15;0.82;;;;;;;23.29;37.82;98837.78;4333785;33;33881;-68
2023/04/02 06:49:37;;;;;;;4.32;1.17;;;;;;;23.28;37.85;98828.78;4334374;32;33975;-68
2023/04/02 06:52:18;;;;;;;2.15;1.17;;;;;;;23.29;37.79;98830.44;4329181;32;34692;-66
2023/04/02 06:54:45;;;;;;;2.08;1.00;;;;;;;23.27;37.75;98829.88;4347751;32;34715;-68
2023/04/02 06:57:15;;;;;;;1.80;1.25;;;;;;;23.28;37.72;98830.69;4348041;32;33681;-68
2023/04/02 06:59:43;;;;;;;1.92;1.00;;;;;;;23.29;37.71;98829.63;4347782;32;33893;-70
2023/04/02 07:02:34;;;;;;;2.15;1.00;;;;;;;23.29;37.71;98838.59;4323514;32;33483;-71
2023/04/02 07:05:05;;;;;;;2.45;1.25;;;;;;;23.30;37.68;98826.63;4335851;32;33640;-68
2023/04/02 07:07:33;;;;;;;2.22;1.05;;;;;;;23.28;37.73;98828.78;4323578;32;33028;-69
2023/04/02 07:10:01;;;;;;;1.15;0.90;;;;;;;23.29;37.73;98829.63;4335696;32;33577;-70
2023/04/02 07:12:29;;;;;;;1.70;1.10;;;;;;;23.29;37.74;98833.16;4339531;32;33400;-68
2023/04/02 07:14:57;;;;;;;1.92;1.00;;;;;;;23.29;37.74;98830.44;4338438;32;34649;-68
2023/04/02 07:17:24;;;;;;;1.95;0.88;;;;;;;23.31;37.74;98832.91;4360911;32;34041;-71
2023/04/02 07:19:52;;;;;;;2.08;1.23;;;;;;;23.30;37.72;98834.81;4335590;32;34469;-69
2023/04/02 07:22:21;;;;;;;2.37;0.90;;;;;;;23.31;37.71;98843.78;4347457;32;34354;-69
2023/04/02 07:24:48;;;;;;;1.67;0.82;;;;;;;23.32;37.67;98849.00;4347290;32;34239;-68
2023/04/02 07:27:16;;;;;;;1.73;1.00;;;;;;;23.34;37.64;98851.47;4353045;32;216400;-69
2023/04/02 07:29:43;;;;;;;2.03;1.08;;;;;;;23.36;37.59;98852.03;4360577;32;33693;-70
2023/04/02 07:32:11;;;;;;;1.58;0.98;;;;;;;23.37;37.56;98845.53;4347315;32;32473;-71
2023/04/02 07:34:40;;;;;;;1.85;0.90;;;;;;;23.37;37.55;98848.25;4347258;32;32485;-69
2023/04/02 07:37:11;;;;;;;1.85;1.10;;;;;;;23.38;37.55;98849.91;4335047;32;33639;-72
2023/04/02 07:39:38;;;;;;;1.85;0.98;;;;;;;23.38;37.52;98853.44;4323281;32;33067;-70
2023/04/02 07:42:07;;;;;;;1.35;0.95;;;;;;;23.40;37.50;98855.91;4347199;32;33548;-67
2023/04/02 07:44:34;;;;;;;2.28;1.10;;;;;;;23.40;37.49;98859.44;4321886;32;34877;-70
2023/04/02 07:47:02;;;;;;;1.25;0.90;;;;;;;23.40;37.48;98855.91;4360573;32;34010;-68
2023/04/02 07:49:29;;;;;;;1.60;0.90;;;;;;;23.41;37.48;98863.03;4344420;32;33777;-69
2023/04/02 07:51:57;;;;;;;3.28;0.95;;;;;;;23.41;37.48;98854.84;4345852;33;33277;-67
2023/04/02 07:54:26;;;;;;;3.05;1.02;;;;;;;23.41;37.48;98865.75;4345869;33;33760;-66
2023/04/02 07:56:53;;;;;;;1.45;1.00;;;;;;;23.42;37.46;98859.22;4332308;33;34769;-67
2023/04/02 07:59:21;;;;;;;2.20;0.90;;;;;;;23.42;37.46;98870.94;4320232;33;34600;-67
2023/04/02 08:01:51;;;;;;;1.37;1.00;;;;;;;23.44;37.45;98867.94;4331972;33;32606;-66
2023/04/02 08:04:20;;;;;;;7.15;1.60;;;;;;;23.41;37.46;98861.12;4332531;33;34068;-73
2023/04/02 08:06:48;;;;;;;6.20;1.35;;;;;;;23.42;37.12;98864.66;4320158;33;34834;-74
2023/04/02 08:09:15;;;;;;;3.33;1.30;;;;;;;23.40;36.93;98873.06;4332122;33;34580;-67
2023/04/02 08:11:45;;;;;;;3.62;1.00;;;;;;;23.40;37.25;98875.78;4332283;33;33640;-68
2023/04/02 08:14:13;;;;;;;2.42;1.02;;;;;;;23.40;37.36;98877.69;4331687;33;33261;-69
2023/04/02 08:16:44;;;;;;;1.15;0.90;;;;;;;23.44;37.37;98878.84;4331898;33;33390;-69
2023/04/02 08:19:12;;;;;;;2.28;0.93;;;;;;;23.45;37.38;98885.94;4319916;33;34599;-70
2023/04/02 08:21:40;;;;;;;2.97;1.00;;;;;;;23.46;37.37;98892.22;4321757;33;33166;-70
2023/04/02 08:24:08;;;;;;;2.28;1.00;;;;;;;23.45;37.41;98888.66;4333960;33;34570;-68
2023/04/02 08:26:36;;;;;;;2.10;0.90;;;;;;;23.47;37.38;98894.69;4333792;33;33434;-65
2023/04/02 08:29:03;;;;;;;1.27;0.65;;;;;;;23.49;37.42;98889.81;4320970;33;34840;-67
2023/04/02 08:31:31;;;;;;;2.00;0.80;;;;;;;23.51;37.50;98897.75;4345737;33;33571;-74
2023/04/02 08:33:58;;;;;;;1.52;1.15;;;;;;;23.52;37.54;98891.22;4345501;33;33950;-66
2023/04/02 08:36:32;;;;;;;3.22;0.85;;;;;;;23.53;37.54;98899.12;4349828;32;34059;-70
2023/04/02 08:39:00;;;;;;;3.00;0.80;;;;;;;23.55;37.54;98904.31;4348532;32;33778;-71
2023/04/02 08:41:29;;;;;;;6.10;0.98;;;;;;;23.54;37.53;98899.94;4335652;32;33399;-69
2023/04/02 08:44:19;;;;;;;4.23;1.07;;;;;;;23.55;37.53;98907.03;4334861;32;33414;-72
2023/04/02 08:47:03;;;;;;;2.37;0.90;;;;;;;23.59;37.46;98900.84;4359049;32;34180;-66
2023/04/02 08:49:33;;;;;;;3.90;0.95;;;;;;;23.59;37.44;98903.56;4335926;32;33888;-66
2023/04/02 08:52:01;;;;;;;4.32;1.17;;;;;;;23.57;37.46;98915.81;4339455;32;32724;-66
2023/04/02 08:54:32;;;;;;;1.37;0.82;;;;;;;23.57;37.45;98910.34;4331748;32;34355;-70
2023/04/02 08:57:17;;;;;;;2.87;0.90;;;;;;;23.59;37.43;98916.38;4346318;32;34820;-73
2023/04/02 08:59:46;;;;;;;3.58;1.12;;;;;;;23.60;37.44;98924.31;4342822;32;33999;-72
2023/04/02 09:02:34;;;;;;;3.00;1.10;;;;;;;23.60;37.45;98921.59;4318820;33;32718;-72
2023/04/02 09:05:04;;;;;;;2.95;0.73;;;;;;;23.61;37.49;98919.69;4344941;32;33736;-70
2023/04/02 09:07:32;;;;;;;5.20;1.12;;;;;;;23.60;37.52;98927.03;4331190;33;33667;-69
2023/04/02 09:10:00;;;;;;;4.28;1.17;;;;;;;23.60;37.54;98923.50;4356882;32;34635;-71
2023/04/02 09:12:29;;;;;;;4.37;1.35;;;;;;;23.60;37.48;98920.75;4348605;32;32588;-67
2023/04/02 09:15:06;;;;;;;3.67;1.35;;;;;;;23.59;37.44;98925.34;4322959;32;33830;-70
2023/04/02 09:17:33;;;;;;;3.33;1.10;;;;;;;23.60;37.34;98926.22;4361294;32;34753;-73
2023/04/02 09:20:20;;;;;;;4.75;1.33;;;;;;;23.60;37.28;98931.66;4348526;32;34832;-73
2023/04/02 09:22:49;;;;;;;;;;;;;;;23.59;37.22;98928.09;4334757;32;32721;-70
2023/04/02 09:25:21;;;;;;;2.15;0.90;;;;;;;23.67;37.06;98929.59;4346936;32;35041;-70
2023/04/02 09:27:50;;;;;;;4.15;1.05;;;;;;;23.61;37.11;98930.56;4360928;32;33762;-68
2023/04/02 09:30:21;;;;;;;4.15;1.40;;;;;;;23.59;37.13;98929.97;4345666;32;34762;-70
2023/04/02 09:32:53;;;;;;;3.67;1.05;;;;;;;23.57;37.14;98935.69;4347753;32;33006;-68
2023/04/02 09:35:24;;;;;;;2.70;1.10;;;;;;;23.56;37.13;98939.50;4346307;32;34215;-69
2023/04/02 09:38:16;;;;;;;6.62;1.23;;;;;;;23.55;37.11;98935.13;4346197;32;33663;-73
2023/04/02 09:40:48;;;;;;;3.37;1.40;;;;;;;23.57;37.05;98941.13;4360731;32;34228;-69
2023/04/02 09:43:18;;;;;;;3.05;1.00;;;;;;;23.55;37.04;98940.56;4346684;32;33561;-70
2023/04/02 09:45:57;;;;;;;5.60;1.25;;;;;;;23.54;37.04;98940.78;4334442;32;34000;-68
2023/04/02 09:48:29;;;;;;;6.53;1.08;;;;;;;23.54;37.03;98952.50;4346804;32;33832;-73
2023/04/02 09:51:12;;;;;;;3.17;1.48;;;;;;;23.54;37.03;98946.25;4334728;32;34875;-71
2023/04/02 09:53:40;;;;;;;5.22;1.08;;;;;;;23.54;37.03;98951.69;4347654;32;34612;-70
2023/04/02 09:56:13;;;;;;;2.30;0.93;;;;;;;23.53;37.03;98953.59;4335235;32;32842;-75
2023/04/02 09:58:41;;;;;;;2.53;1.02;;;;;;;23.53;37.03;98953.59;4334849;32;32810;-73
2023/04/02 10:01:33;;;;;;;4.35;1.10;;;;;;;23.52;37.01;98957.37;4322930;32;33149;-69
2023/04/02 10:04:03;;;;;;;2.75;1.00;;;;;;;23.54;36.98;98968.84;4342253;32;33498;-67
2023/04/02 10:06:31;;;;;;;2.78;0.82;;;;;;;23.52;36.97;98960.12;4345953;32;33795;-68
2023/04/02 10:09:26;;;;;;;4.95;1.27;;;;;;;23.50;36.98;98965.00;4334629;32;33129;-68
2023/04/02 10:11:54;;;;;;;2.08;0.95;;;;;;;23.52;36.96;98957.37;4335077;32;34152;-70
2023/04/02 10:14:24;;;;;;;3.37;0.98;;;;;;;23.50;36.96;98956.81;4346867;32;33699;-71
2023/04/02 10:16:56;;;;;;;4.40;1.00;;;;;;;23.49;36.96;98952.44;4335405;32;33789;-72
2023/04/02 10:19:35;;;;;;;1.58;0.80;;;;;;;23.48;36.96;98953.50;4334427;32;34205;-73
2023/04/02 10:22:05;;;;;;;2.47;0.88;;;;;;;23.47;36.95;98951.03;4323154;33;35615;-71
2023/04/02 10:24:33;;;;;;;4.82;1.30;;;;;;;23.47;36.94;98945.59;4334121;32;33093;-73
2023/04/02 10:27:21;;;;;;;4.43;1.20;;;;;;;23.46;36.91;98950.22;4346289;32;33746;-69
2023/04/02 10:30:04;;;;;;;2.97;0.90;;;;;;;23.47;36.90;98949.16;4359679;32;33928;-66
2023/04/02 10:32:34;;;;;;;3.33;0.90;;;;;;;23.46;36.94;98950.22;4335047;32;33001;-68
2023/04/02 10:35:24;;;;;;;2.42;0.88;;;;;;;23.46;36.96;98947.50;4346258;32;33309;-69
2023/04/02 10:37:57;;;;;;;3.05;1.27;;;;;;;23.45;36.97;98948.53;4331812;32;34210;-69
2023/04/02 10:41:02;;;;;;;5.22;1.17;;;;;;;23.45;37.02;98945.00;4347455;32;34033;-72
2023/04/02 10:43:51;;;;;;;5.10;1.25;;;;;;;23.47;37.02;98942.88;4345230;32;34155;-73
2023/04/02 10:46:35;;;;;;;7.70;1.20;;;;;;;23.45;37.08;98940.38;4332699;33;33531;-69
2023/04/02 10:49:42;;;;;;;2.28;0.95;;;;;;;23.42;37.13;98939.00;4345960;32;33740;-69
2023/04/02 10:52:17;;;;;;;3.42;1.10;;;;;;;23.42;37.14;98946.34;4335631;32;33819;-67
2023/04/02 11:33:24;;;;;;;3.90;1.35;;;;;;;23.48;37.55;98925.47;4979218;27;20110;-70
2023/04/02 11:36:24;;;;;;;8.13;1.60;;;;;;;23.49;37.67;98930.66;4367779;32;32540;-67
2023/04/02 11:38:52;;;;;;;7.20;1.40;;;;;;;23.48;37.73;98929.00;4362577;32;33810;-68
2023/04/02 11:42:00;;;;;;;5.40;1.30;;;;;;;23.49;37.87;98922.47;4360368;32;33721;-74
2023/04/02 11:44:29;;;;;;;5.45;1.50;;;;;;;23.51;37.91;98925.78;4373451;32;33337;-69
2023/04/02 11:47:20;;;;;;;9.10;1.67;;;;;;;23.49;38.05;98925.19;4362088;32;32881;-71
2023/04/02 11:49:54;;;;;;;9.43;1.45;;;;;;;23.52;38.05;98924.72;4359167;32;32756;-71
2023/04/02 11:52:23;;;;;;;5.75;1.27;;;;;;;23.53;38.22;98929.09;4375059;32;33978;-74
2023/04/02 11:54:55;;;;;;;6.82;1.48;;;;;;;23.51;38.29;98925.78;4362059;32;34821;-70
2023/04/02 11:57:45;;;;;;;5.05;1.48;;;;;;;23.52;38.33;98930.16;4358254;32;33347;-72
2023/04/02 12:00:36;;;;;;;2.40;1.15;;;;;;;23.54;38.41;98916.28;4390790;32;33340;-67
2023/04/02 12:03:30;;;;;;;5.28;1.60;;;;;;;23.56;38.40;98914.97;4365083;32;32891;-69
2023/04/02 12:06:09;;;;;;;10.13;1.52;;;;;;;23.53;38.55;98915.47;4391054;32;33976;-73
2023/04/02 12:09:03;;;;;;;5.60;1.55;;;;;;;23.52;38.65;98916.56;4349958;32;33585;-71
2023/04/02 12:11:32;;;;;;;4.65;1.20;;;;;;;23.52;38.74;98910.28;4360930;32;33860;-70
2023/04/02 12:14:06;;;;;;;7.97;1.40;;;;;;;23.52;38.92;98907.56;4330343;32;32568;-67
2023/04/02 12:16:33;;;;;;;6.62;2.08;;;;;;;23.51;39.04;98914.91;4362003;32;34616;-70
2023/04/02 12:19:02;;;;;;;6.32;1.50;;;;;;;23.50;38.91;98907.81;4350161;32;34264;-71
2023/04/02 12:21:29;;;;;;;2.95;1.17;;;;;;;23.51;38.60;98908.63;4362055;32;33818;-68
2023/04/02 12:23:57;;;;;;;4.87;1.52;;;;;;;23.50;38.46;98907.81;4349768;32;34031;-72
2023/04/02 12:26:36;;;;;;;4.22;1.58;;;;;;;23.50;38.29;98904.25;4335023;32;32672;-69
2023/04/02 12:29:27;;;;;;;6.50;1.37;;;;;;;23.51;38.34;98903.19;4335386;32;34028;-70
2023/04/02 12:31:56;;;;;;;5.20;1.33;;;;;;;23.51;38.26;98890.41;4348995;32;33936;-68
2023/04/02 12:34:25;;;;;;;7.80;2.08;;;;;;;23.49;38.32;98883.53;4346756;32;32944;-72
2023/04/02 12:37:01;;;;;;;7.93;2.80;;;;;;;23.49;38.57;98889.00;4361908;32;34774;-72
2023/04/02 12:39:32;;;;;;;6.80;1.70;;;;;;;23.51;38.69;98886.84;4338103;32;33726;-75
2023/04/02 12:42:00;;;;;;;10.15;1.95;;;;;;;23.52;38.81;98885.78;4349666;32;33719;-71
2023/04/02 12:44:28;;;;;;;9.50;1.73;;;;;;;23.51;38.96;98884.97;4348370;32;32524;-67
2023/04/02 12:46:59;;;;;;;10.40;1.90;;;;;;;23.51;39.02;98884.97;4353697;32;34202;-69
2023/04/02 12:49:35;;;;;;;7.75;2.05;;;;;;;23.54;39.23;98883.63;4350140;32;33216;-69
2023/04/02 12:52:05;;;;;;;13.60;2.12;;;;;;;23.56;39.26;98890.47;4375086;32;33748;-70
2023/04/02 12:54:35;;;;;;;14.20;2.20;;;;;;;23.55;39.31;98869.78;4361459;32;34757;-68